Time;durP1;ratioP1;P1;durP2;ratioP2;P2;SDS_P1;SDS_P2;PMS_P1;PMS_P2;Temp;Humidity;BMP_temperature;BMP_pressure;BME280_temperature;BME280_humidity;BME280_pressure;Samples;Min_cycle;Max_cycle;Signal;HPM_P1;HPM_P2
2022/05/05 00:00:58;;;;;;;4.28;2.15;;;25.40;99.90;;;;;;5080506;28;20094;-72
2022/05/05 00:03:26;;;;;;;4.38;1.80;;;26.00;99.90;;;;;;5069598;28;20039;-74
2022/05/05 00:05:54;;;;;;;3.45;1.40;;;26.90;99.90;;;;;;5089456;28;20067;-74
2022/05/05 00:08:22;;;;;;;2.28;1.20;;;27.70;99.50;;;;;;5088348;28;20050;-75
2022/05/05 00:16:19;;;;;;;;;;;28.90;96.80;;;;;;5090893;28;20145;-74
2022/05/05 00:18:47;;;;;;;1.75;0.77;;;28.70;97.10;;;;;;5071921;28;19926;-75
2022/05/05 00:21:15;;;;;;;1.55;0.40;;;29.00;95.70;;;;;;5070272;28;20025;-73
2022/05/05 00:23:42;;;;;;;0.52;0.30;;;29.50;95.70;;;;;;5072385;28;20032;-75
2022/05/05 00:26:09;;;;;;;0.82;0.30;;;29.80;95.30;;;;;;5085536;28;20046;-74
2022/05/05 00:28:37;;;;;;;2.25;0.40;;;30.30;93.90;;;;;;5087013;28;20549;-75
2022/05/05 00:31:04;;;;;;;2.03;0.30;;;30.70;94.10;;;;;;5092191;28;20059;-74
2022/05/05 00:33:32;;;;;;;0.98;0.25;;;31.30;93.10;;;;;;5093787;28;20024;-75
2022/05/05 00:35:59;;;;;;;1.05;0.30;;;31.30;93.00;;;;;;5091331;28;20020;-73
2022/05/05 00:38:26;;;;;;;0.82;0.50;;;30.50;93.20;;;;;;5087445;28;20428;-73
2022/05/05 00:40:53;;;;;;;1.30;0.50;;;29.50;93.50;;;;;;5089053;28;20031;-73
2022/05/05 00:43:21;;;;;;;4.45;0.68;;;28.70;95.10;;;;;;5092972;28;20032;-73
2022/05/05 00:45:48;;;;;;;1.95;0.30;;;27.90;95.70;;;;;;5093322;28;20085;-75
2022/05/05 00:48:17;;;;;;;1.55;0.40;;;27.30;96.60;;;;;;5092834;28;20068;-73
2022/05/05 00:50:44;;;;;;;0.52;0.30;;;27.00;96.30;;;;;;5093582;28;20023;-73
2022/05/05 00:53:12;;;;;;;1.17;0.50;;;27.00;97.00;;;;;;5075411;28;20032;-75
2022/05/05 00:55:45;;;;;;;0.63;0.30;;;26.90;96.90;;;;;;5093683;28;20080;-74
2022/05/05 00:58:14;;;;;;;0.70;0.40;;;26.60;97.50;;;;;;5086439;28;20030;-73
2022/05/05 01:00:42;;;;;;;1.60;0.95;;;26.30;97.40;;;;;;5073165;28;20032;-73
2022/05/05 01:03:11;;;;;;;0.82;0.38;;;27.10;97.50;;;;;;5072888;28;20406;-73
2022/05/05 01:05:40;;;;;;;2.03;0.35;;;27.40;95.70;;;;;;5072626;28;20580;-74
2022/05/05 01:08:08;;;;;;;0.98;0.22;;;27.10;96.10;;;;;;5092478;28;20085;-74
2022/05/05 01:10:36;;;;;;;0.80;0.30;;;26.60;95.60;;;;;;5089465;28;20093;-76
2022/05/05 01:13:03;;;;;;;0.60;0.30;;;26.10;96.70;;;;;;5082273;28;20378;-75
2022/05/05 01:15:32;;;;;;;1.38;0.50;;;25.80;96.90;;;;;;5092765;28;20482;-74
2022/05/05 01:17:59;;;;;;;0.98;0.32;;;25.60;95.80;;;;;;5081294;28;20020;-74
2022/05/05 01:20:26;;;;;;;1.48;0.28;;;25.50;96.60;;;;;;5075244;28;20036;-75
2022/05/05 01:22:54;;;;;;;0.50;0.20;;;25.70;96.50;;;;;;5088322;28;20027;-75
2022/05/05 01:28:14;;;;;;;0.25;0.20;;;28.20;94.60;;;;;;5092168;28;20056;-76
2022/05/05 01:30:46;;;;;;;1.40;0.40;;;29.30;92.40;;;;;;5092972;28;20025;-74
2022/05/05 01:33:24;;;;;;;1.20;0.40;;;30.30;91.80;;;;;;5091706;28;20028;-75
2022/05/05 01:35:54;;;;;;;1.10;0.30;;;30.20;90.90;;;;;;5093065;28;20420;-75
2022/05/05 01:38:24;;;;;;;0.30;0.20;;;30.50;91.30;;;;;;5089459;28;20024;-75
2022/05/05 01:40:51;;;;;;;0.70;0.35;;;30.20;90.50;;;;;;5091294;28;20518;-73
2022/05/05 01:43:22;;;;;;;0.43;0.20;;;29.80;91.10;;;;;;5092591;28;20098;-72
2022/05/05 01:45:49;;;;;;;1.10;0.30;;;30.10;90.50;;;;;;5086601;28;20032;-74
2022/05/05 01:48:17;;;;;;;0.35;0.30;;;30.20;90.70;;;;;;5074202;28;20452;-75
2022/05/05 01:50:44;;;;;;;3.38;0.30;;;30.80;90.50;;;;;;5088153;28;20424;-74
2022/05/05 01:53:12;;;;;;;1.58;0.47;;;31.40;89.40;;;;;;5071820;28;20025;-73
2022/05/05 01:55:39;;;;;;;0.77;0.30;;;31.80;89.40;;;;;;5072202;28;20382;-74
2022/05/05 01:58:06;;;;;;;2.60;0.50;;;31.80;87.60;;;;;;5072262;28;20081;-74
2022/05/05 02:00:34;;;;;;;1.02;0.50;;;31.90;88.20;;;;;;5077022;28;20692;-73
2022/05/05 02:03:01;;;;;;;1.15;0.20;;;32.30;87.20;;;;;;5087285;28;20028;-74
2022/05/05 02:05:29;;;;;;;2.88;0.30;;;31.40;87.30;;;;;;5073397;28;20029;-73
2022/05/05 02:07:56;;;;;;;1.35;0.60;;;30.00;88.40;;;;;;5092063;28;20055;-75
2022/05/05 02:10:24;;;;;;;1.45;0.47;;;29.00;90.40;;;;;;5091718;28;20028;-74
2022/05/05 02:12:53;;;;;;;0.65;0.40;;;28.20;90.70;;;;;;5092569;28;20485;-74
2022/05/05 02:15:20;;;;;;;0.55;0.30;;;28.20;90.70;;;;;;5091696;28;20032;-73
2022/05/05 02:17:48;;;;;;;0.55;0.20;;;28.10;90.90;;;;;;5081386;28;20021;-74
2022/05/05 02:20:16;;;;;;;1.08;0.38;;;28.50;91.00;;;;;;5070135;28;20032;-75
2022/05/05 02:22:43;;;;;;;1.67;0.30;;;29.30;90.80;;;;;;5072357;28;20024;-75
2022/05/05 02:25:11;;;;;;;1.42;0.55;;;29.40;90.10;;;;;;5072125;28;20064;-74
2022/05/05 02:27:48;;;;;;;0.85;0.38;;;29.50;89.60;;;;;;5072069;28;20478;-74
2022/05/05 02:30:21;;;;;;;1.40;0.40;;;29.70;90.10;;;;;;5071223;28;20058;-74
2022/05/05 02:32:49;;;;;;;2.05;0.30;;;29.60;90.00;;;;;;5071738;28;20073;-74
2022/05/05 02:35:18;;;;;;;1.75;0.30;;;29.60;89.40;;;;;;5071705;28;20675;-73
2022/05/05 02:40:32;;;;;;;1.20;0.60;;;29.80;88.50;;;;;;5072408;28;20043;-74
2022/05/05 02:43:00;;;;;;;0.88;0.28;;;29.90;87.60;;;;;;5071624;28;20032;-74
2022/05/05 02:45:28;;;;;;;1.88;0.30;;;29.80;87.20;;;;;;5071285;28;20020;-74
2022/05/05 02:47:55;;;;;;;0.28;0.20;;;29.60;88.10;;;;;;5071085;28;20037;-73
2022/05/05 02:50:23;;;;;;;0.98;0.40;;;29.80;87.30;;;;;;5069510;28;20063;-73
2022/05/05 02:52:51;;;;;;;0.47;0.30;;;29.70;87.80;;;;;;5084850;28;20020;-74
2022/05/05 02:55:18;;;;;;;1.13;0.20;;;29.50;87.50;;;;;;5087945;28;20059;-74
2022/05/05 02:57:45;;;;;;;1.08;0.40;;;29.60;86.70;;;;;;5076664;28;20025;-75
2022/05/05 03:00:14;;;;;;;1.80;0.32;;;29.70;86.80;;;;;;5069511;28;20432;-74
2022/05/05 03:02:42;;;;;;;0.77;0.40;;;29.30;87.30;;;;;;5091280;28;20031;-75
2022/05/05 03:05:11;;;;;;;1.35;0.38;;;29.10;88.80;;;;;;5090062;28;20036;-74
2022/05/05 03:07:38;;;;;;;1.65;0.28;;;29.00;87.90;;;;;;5089047;28;20095;-74
2022/05/05 03:10:06;;;;;;;0.90;0.30;;;28.10;89.60;;;;;;5089010;28;20051;-74
2022/05/05 03:12:33;;;;;;;0.68;0.30;;;28.10;90.20;;;;;;5089762;28;20028;-75
2022/05/05 03:15:01;;;;;;;1.23;0.30;;;28.50;89.70;;;;;;5081211;28;20020;-73
2022/05/05 03:17:29;;;;;;;0.38;0.20;;;28.90;89.70;;;;;;5079856;28;20032;-74
2022/05/05 03:19:57;;;;;;;1.08;0.40;;;29.10;87.70;;;;;;5065947;28;20396;-74
2022/05/05 03:22:24;;;;;;;0.40;0.30;;;28.80;87.20;;;;;;5067089;28;20029;-74
2022/05/05 03:24:51;;;;;;;1.45;0.30;;;28.60;88.80;;;;;;5066745;28;20158;-73
2022/05/05 03:27:19;;;;;;;1.20;0.30;;;28.60;86.90;;;;;;5066943;28;20039;-73
2022/05/05 03:29:47;;;;;;;0.70;0.30;;;28.50;85.40;;;;;;5066769;28;20168;-73
2022/05/05 03:32:15;;;;;;;1.05;0.30;;;28.40;87.10;;;;;;5068748;28;20020;-73
2022/05/05 03:34:42;;;;;;;0.82;0.52;;;28.10;87.10;;;;;;5068720;28;20028;-73
2022/05/05 03:37:10;;;;;;;1.27;0.40;;;27.90;87.20;;;;;;5068980;28;20024;-73
2022/05/05 03:39:37;;;;;;;0.63;0.30;;;27.90;87.40;;;;;;5073857;28;20031;-73
2022/05/05 03:42:05;;;;;;;2.65;0.60;;;27.50;88.40;;;;;;5088657;28;20054;-72
2022/05/05 03:44:33;;;;;;;0.45;0.28;;;26.90;89.40;;;;;;5083666;28;20107;-73
2022/05/05 03:47:00;;;;;;;0.40;0.20;;;26.40;89.80;;;;;;5075837;28;20166;-74
2022/05/05 03:49:27;;;;;;;1.55;0.60;;;26.10;90.40;;;;;;5079837;28;20090;-74
2022/05/05 03:51:56;;;;;;;1.85;0.30;;;25.70;90.80;;;;;;5068458;28;20485;-73
2022/05/05 03:54:27;;;;;;;1.23;0.20;;;25.60;92.00;;;;;;5068613;28;20143;-72
2022/05/05 03:56:54;;;;;;;1.02;0.40;;;25.40;91.60;;;;;;5067537;28;20108;-72
2022/05/05 03:59:24;;;;;;;2.05;0.63;;;25.30;91.70;;;;;;5068340;28;20024;-74
2022/05/05 04:01:52;;;;;;;1.77;0.40;;;25.20;91.60;;;;;;5085607;28;20073;-74
2022/05/05 04:04:19;;;;;;;0.88;0.50;;;25.00;91.60;;;;;;5091999;28;20108;-72
2022/05/05 04:06:47;;;;;;;0.60;0.25;;;24.90;92.50;;;;;;5072543;28;20019;-73
2022/05/05 04:09:15;;;;;;;4.57;0.45;;;24.80;92.20;;;;;;5072418;28;20063;-73
2022/05/05 04:11:42;;;;;;;5.68;0.65;;;24.80;92.00;;;;;;5072595;28;20493;-73
2022/05/05 04:14:10;;;;;;;1.02;0.30;;;24.70;91.90;;;;;;5071911;28;20051;-73
2022/05/05 04:16:38;;;;;;;0.82;0.25;;;24.70;92.00;;;;;;5072554;28;20560;-73
2022/05/05 04:19:05;;;;;;;1.25;0.30;;;24.60;92.10;;;;;;5072707;28;20031;-74
2022/05/05 04:21:42;;;;;;;0.75;0.30;;;24.50;92.30;;;;;;5073097;28;20030;-72
2022/05/05 04:24:10;;;;;;;0.90;0.43;;;24.50;92.20;;;;;;5082076;28;20032;-74
2022/05/05 04:26:38;;;;;;;0.90;0.40;;;24.40;92.30;;;;;;5090991;28;20089;-76
2022/05/05 04:29:05;;;;;;;0.35;0.30;;;24.50;92.30;;;;;;5089969;28;20445;-75
2022/05/05 04:31:33;;;;;;;2.05;0.50;;;24.60;92.20;;;;;;5091643;28;20024;-75
2022/05/05 04:34:01;;;;;;;0.43;0.25;;;24.90;92.20;;;;;;5091728;28;20027;-74
2022/05/05 04:36:34;;;;;;;1.42;0.38;;;24.90;91.70;;;;;;5072265;28;20111;-75
2022/05/05 04:39:03;;;;;;;0.38;0.20;;;25.10;91.60;;;;;;5074080;28;20029;-74
2022/05/05 04:41:31;;;;;;;0.85;0.43;;;25.00;91.70;;;;;;5073474;28;20045;-73
2022/05/05 04:43:58;;;;;;;2.60;0.47;;;24.70;91.90;;;;;;5072904;28;20044;-74
2022/05/05 04:46:26;;;;;;;2.28;0.50;;;24.60;92.10;;;;;;5074169;28;20124;-74
2022/05/05 04:48:53;;;;;;;1.60;0.52;;;24.40;92.50;;;;;;5074804;28;20048;-74
2022/05/05 04:51:21;;;;;;;2.13;0.22;;;24.40;92.50;;;;;;5093392;28;20020;-74
2022/05/05 04:53:48;;;;;;;0.40;0.20;;;24.30;92.50;;;;;;5093276;28;20385;-75
2022/05/05 04:56:16;;;;;;;2.15;0.40;;;24.30;93.20;;;;;;5085063;28;20028;-76
2022/05/05 04:58:44;;;;;;;2.30;0.45;;;24.30;93.30;;;;;;5073199;28;20551;-76
2022/05/05 05:01:11;;;;;;;0.95;0.50;;;24.30;93.10;;;;;;5083669;28;20056;-73
2022/05/05 05:03:41;;;;;;;0.88;0.30;;;24.30;93.00;;;;;;5093205;28;20028;-74
2022/05/05 05:06:10;;;;;;;0.52;0.30;;;24.40;93.20;;;;;;5092725;28;20031;-74
2022/05/05 05:08:38;;;;;;;1.85;0.73;;;24.40;92.60;;;;;;5092964;28;20012;-74
2022/05/05 05:11:06;;;;;;;2.20;0.30;;;24.60;92.50;;;;;;5093357;28;20036;-74
2022/05/05 05:13:33;;;;;;;0.88;0.40;;;24.60;92.00;;;;;;5080862;28;20031;-75
2022/05/05 05:16:01;;;;;;;0.55;0.30;;;24.60;92.10;;;;;;5072458;28;20033;-75
2022/05/05 05:18:28;;;;;;;1.45;0.30;;;24.60;91.90;;;;;;5072892;28;20017;-75
2022/05/05 05:20:56;;;;;;;0.98;0.30;;;24.40;92.10;;;;;;5073232;28;20028;-75
2022/05/05 05:23:23;;;;;;;0.68;0.20;;;24.30;92.40;;;;;;5072456;28;20072;-75
2022/05/05 05:25:50;;;;;;;0.95;0.88;;;24.30;92.50;;;;;;5071788;28;20490;-75
2022/05/05 05:28:18;;;;;;;1.17;0.47;;;24.30;92.70;;;;;;5070114;28;20048;-76
2022/05/05 05:30:45;;;;;;;0.90;0.40;;;24.20;92.70;;;;;;5083394;28;20013;-75
2022/05/05 05:33:12;;;;;;;0.82;0.45;;;24.30;92.80;;;;;;5091161;28;20092;-75
2022/05/05 05:35:40;;;;;;;1.58;0.40;;;24.30;93.20;;;;;;5086164;28;20024;-77
2022/05/05 05:38:07;;;;;;;1.20;0.52;;;24.20;92.60;;;;;;5091155;28;20158;-76
2022/05/05 05:40:34;;;;;;;1.67;0.40;;;24.30;93.00;;;;;;5088500;28;20035;-76
2022/05/05 05:43:02;;;;;;;1.70;0.38;;;24.30;93.00;;;;;;5090382;28;20035;-77
2022/05/05 05:45:30;;;;;;;0.90;0.30;;;24.40;93.10;;;;;;5089833;28;20079;-78
2022/05/05 05:47:57;;;;;;;3.25;0.50;;;24.50;92.80;;;;;;5069022;28;20044;-77
2022/05/05 05:50:27;;;;;;;6.68;0.70;;;24.60;92.30;;;;;;5070639;28;20471;-75
2022/05/05 05:52:54;;;;;;;2.28;0.93;;;24.70;92.70;;;;;;5070450;28;20028;-76
2022/05/05 05:55:22;;;;;;;2.13;0.55;;;24.70;92.30;;;;;;5071081;28;20090;-77
2022/05/05 05:57:49;;;;;;;1.70;1.13;;;24.70;92.30;;;;;;5070584;28;20020;-78
2022/05/05 06:00:17;;;;;;;2.63;0.57;;;24.70;92.20;;;;;;5061218;28;20114;-75
2022/05/05 06:05:31;;;;;;;0.90;0.47;;;24.70;92.10;;;;;;5048917;28;20183;-75
2022/05/05 06:08:03;;;;;;;1.67;0.43;;;24.60;92.00;;;;;;5049538;28;20033;-76
2022/05/05 06:10:31;;;;;;;1.75;0.50;;;24.50;91.50;;;;;;5050799;28;20032;-77
2022/05/05 06:12:58;;;;;;;1.50;0.60;;;24.40;91.80;;;;;;5049789;28;20500;-76
2022/05/05 06:15:26;;;;;;;2.50;0.82;;;24.40;92.20;;;;;;5050137;28;20024;-76
2022/05/05 06:17:53;;;;;;;1.05;0.30;;;24.40;92.60;;;;;;5049115;28;20062;-75
2022/05/05 06:20:21;;;;;;;1.30;0.40;;;24.30;92.50;;;;;;5049615;28;20040;-76
2022/05/05 06:22:52;;;;;;;3.33;0.50;;;24.20;92.30;;;;;;5049626;28;20032;-76
2022/05/05 06:25:23;;;;;;;1.10;0.45;;;24.10;92.90;;;;;;5048520;28;20499;-75
2022/05/05 06:27:50;;;;;;;1.05;0.63;;;24.00;93.70;;;;;;5049988;28;20463;-78
2022/05/05 06:30:18;;;;;;;3.45;0.88;;;23.80;94.70;;;;;;5046623;28;20021;-78
2022/05/05 06:32:46;;;;;;;0.90;0.50;;;23.60;95.00;;;;;;5049240;28;20029;-76
2022/05/05 06:35:14;;;;;;;3.13;1.17;;;23.40;95.40;;;;;;5048757;28;20041;-75
2022/05/05 06:37:41;;;;;;;0.88;0.50;;;23.20;95.80;;;;;;5049759;28;20041;-76
2022/05/05 06:40:09;;;;;;;1.65;0.73;;;23.10;96.20;;;;;;5049778;28;20017;-76
2022/05/05 06:42:36;;;;;;;2.33;0.73;;;23.00;96.40;;;;;;5049835;28;20035;-75
2022/05/05 06:45:05;;;;;;;1.05;0.65;;;22.90;96.70;;;;;;5049079;28;20037;-76
2022/05/05 06:47:33;;;;;;;1.58;0.60;;;22.70;97.10;;;;;;5053498;28;20047;-77
2022/05/05 06:50:00;;;;;;;1.45;0.95;;;22.60;97.60;;;;;;5069493;28;20037;-77
2022/05/05 06:52:28;;;;;;;1.70;0.98;;;22.50;97.70;;;;;;5069471;28;20029;-77
2022/05/05 06:54:55;;;;;;;2.15;0.60;;;22.40;97.90;;;;;;5069116;28;20029;-76
2022/05/05 06:57:23;;;;;;;1.25;0.70;;;22.30;98.00;;;;;;5069479;28;20089;-75
2022/05/05 06:59:50;;;;;;;2.00;0.65;;;22.20;98.20;;;;;;5088231;28;20040;-76
2022/05/05 07:02:18;;;;;;;2.70;0.68;;;22.10;98.40;;;;;;5067846;28;20040;-76
2022/05/05 07:07:31;;;;;;;3.53;0.90;;;21.80;99.10;;;;;;5069074;28;20039;-75
2022/05/05 07:12:44;;;;;;;1.63;0.70;;;21.50;99.50;;;;;;5066704;28;20089;-75
2022/05/05 07:15:12;;;;;;;2.40;0.75;;;21.40;99.70;;;;;;5068510;28;20035;-76
2022/05/05 07:17:39;;;;;;;3.38;0.68;;;21.30;99.90;;;;;;5068555;28;20501;-75
2022/05/05 07:20:07;;;;;;;1.65;0.85;;;21.20;99.90;;;;;;5068991;28;20039;-75
2022/05/05 07:22:35;;;;;;;1.73;0.93;;;21.10;99.90;;;;;;5068346;28;20115;-77
2022/05/05 07:25:05;;;;;;;2.17;0.88;;;20.90;99.90;;;;;;5068168;28;20044;-74
2022/05/05 07:27:33;;;;;;;2.75;0.77;;;20.90;99.90;;;;;;5067818;28;20443;-74
2022/05/05 07:30:00;;;;;;;2.55;0.98;;;20.80;99.90;;;;;;5071813;28;20676;-74
2022/05/05 07:32:28;;;;;;;4.03;1.50;;;20.80;99.90;;;;;;5072707;28;20493;-76
2022/05/05 07:34:55;;;;;;;2.67;0.88;;;20.70;99.90;;;;;;5071653;28;20024;-76
2022/05/05 07:37:23;;;;;;;5.32;1.27;;;20.70;99.90;;;;;;5068705;28;20483;-77
2022/05/05 07:39:50;;;;;;;2.75;1.10;;;20.60;99.90;;;;;;5068425;28;20024;-78
2022/05/05 07:42:17;;;;;;;3.47;1.42;;;20.50;99.90;;;;;;5071289;28;20095;-77
2022/05/05 07:44:45;;;;;;;2.03;1.00;;;20.50;99.90;;;;;;5082955;28;20475;-78
2022/05/05 07:47:12;;;;;;;3.92;0.82;;;20.40;99.90;;;;;;5085452;28;20048;-75
2022/05/05 07:49:39;;;;;;;2.58;1.02;;;20.30;99.90;;;;;;5088696;28;20028;-77
2022/05/05 07:52:07;;;;;;;4.97;1.30;;;20.30;99.90;;;;;;5087760;28;20440;-76
2022/05/05 07:54:44;;;;;;;2.35;0.93;;;20.30;99.90;;;;;;5089216;28;20024;-75
2022/05/05 07:57:17;;;;;;;4.75;1.73;;;20.20;99.90;;;;;;5089030;28;20529;-76
2022/05/05 07:59:45;;;;;;;1.88;0.90;;;20.20;99.90;;;;;;5088885;28;20478;-78
2022/05/05 08:02:16;;;;;;;4.38;1.33;;;20.10;99.90;;;;;;5068677;28;20040;-77
2022/05/05 08:04:44;;;;;;;3.22;1.00;;;20.00;99.90;;;;;;5067529;28;20372;-76
2022/05/05 08:07:13;;;;;;;2.47;1.10;;;20.00;99.90;;;;;;5069924;28;20095;-75
2022/05/05 08:09:41;;;;;;;4.20;1.13;;;19.90;99.90;;;;;;5069924;28;20078;-76
2022/05/05 08:12:09;;;;;;;8.15;1.55;;;19.90;99.90;;;;;;5052483;28;20028;-77
2022/05/05 08:14:36;;;;;;;2.40;0.93;;;19.80;99.90;;;;;;5070102;28;20104;-76
2022/05/05 08:17:04;;;;;;;1.98;1.02;;;19.80;99.90;;;;;;5070558;28;20731;-76
2022/05/05 08:19:31;;;;;;;3.78;0.90;;;19.70;99.90;;;;;;5070408;28;20100;-78
2022/05/05 08:21:58;;;;;;;4.13;1.08;;;19.70;99.90;;;;;;5070078;28;20025;-74
2022/05/05 08:30:02;;;;;;;2.17;1.23;;;19.60;99.90;;;;;;5070342;28;20538;-75
2022/05/05 08:32:30;;;;;;;4.75;0.70;;;19.60;99.90;;;;;;5069811;28;20037;-77
2022/05/05 08:34:57;;;;;;;2.58;0.95;;;19.60;99.90;;;;;;5070372;28;20017;-75
2022/05/05 08:37:24;;;;;;;3.95;1.50;;;19.60;99.90;;;;;;5068516;28;20024;-77
2022/05/05 08:39:52;;;;;;;3.05;0.60;;;19.50;99.90;;;;;;5069748;28;20024;-77
2022/05/05 08:42:19;;;;;;;4.60;1.77;;;19.50;99.90;;;;;;5069938;28;20025;-77
2022/05/05 08:44:47;;;;;;;2.17;0.77;;;19.40;99.90;;;;;;5069819;28;20037;-76
2022/05/05 08:47:17;;;;;;;4.13;1.00;;;19.30;99.90;;;;;;5051799;28;20027;-76
2022/05/05 08:49:45;;;;;;;3.40;1.23;;;19.30;99.90;;;;;;5072415;28;20054;-77
2022/05/05 08:52:17;;;;;;;7.03;1.70;;;19.20;99.90;;;;;;5073490;28;20040;-77
2022/05/05 08:54:45;;;;;;;2.72;1.50;;;19.10;99.90;;;;;;5073655;28;20108;-77
2022/05/05 08:57:13;;;;;;;2.45;1.67;;;19.00;99.90;;;;;;5073993;28;20032;-75
2022/05/05 08:59:40;;;;;;;4.70;1.13;;;19.00;99.90;;;;;;5073820;28;20017;-76
2022/05/05 09:02:10;;;;;;;2.60;1.50;;;18.90;99.90;;;;;;5073503;28;20043;-75
2022/05/05 09:04:37;;;;;;;2.97;0.90;;;18.90;99.90;;;;;;5073358;28;20040;-76
2022/05/05 09:07:05;;;;;;;4.93;2.03;;;18.90;99.90;;;;;;5072436;28;20017;-77
2022/05/05 09:09:34;;;;;;;3.67;1.52;;;18.90;99.90;;;;;;5073632;28;20432;-77
2022/05/05 09:12:13;;;;;;;2.33;1.20;;;18.80;99.90;;;;;;5073936;28;20031;-76
2022/05/05 09:14:47;;;;;;;4.95;1.83;;;18.80;99.90;;;;;;5073398;28;20033;-78
2022/05/05 09:17:25;;;;;;;6.32;1.80;;;18.80;99.90;;;;;;5073725;28;20629;-76
2022/05/05 09:19:57;;;;;;;6.88;1.73;;;18.70;99.90;;;;;;5073150;28;20375;-76
2022/05/05 09:22:27;;;;;;;2.60;1.17;;;18.70;99.90;;;;;;5072100;28;20024;-78
2022/05/05 09:24:56;;;;;;;2.78;1.05;;;18.70;99.90;;;;;;5073204;28;20040;-76
2022/05/05 09:27:25;;;;;;;1.27;0.80;;;18.70;99.90;;;;;;5073003;28;20028;-77
2022/05/05 09:30:03;;;;;;;3.15;0.98;;;18.70;99.90;;;;;;5072831;28;20032;-77
2022/05/05 09:32:35;;;;;;;4.82;1.05;;;18.60;99.90;;;;;;5073430;28;20024;-76
2022/05/05 09:35:16;;;;;;;3.05;0.85;;;18.60;99.90;;;;;;5073116;28;20056;-76
2022/05/05 09:37:49;;;;;;;5.85;2.05;;;18.70;99.90;;;;;;5073455;28;20062;-76
2022/05/05 09:40:19;;;;;;;6.05;1.30;;;18.70;99.90;;;;;;5072309;28;20024;-77
2022/05/05 09:42:49;;;;;;;1.63;1.25;;;18.70;99.90;;;;;;5073301;28;20043;-77
2022/05/05 09:45:24;;;;;;;5.93;1.27;;;18.70;99.90;;;;;;5072650;28;20041;-76
2022/05/05 09:47:54;;;;;;;4.32;1.08;;;18.70;99.90;;;;;;5072772;28;20062;-77
2022/05/05 09:50:26;;;;;;;3.30;1.60;;;18.70;99.90;;;;;;5072367;28;20016;-77
2022/05/05 09:58:36;;;;;;;5.03;1.50;;;18.60;99.90;;;;;;5072187;28;20085;-77
2022/05/05 10:01:08;;;;;;;4.55;1.15;;;18.60;99.90;;;;;;5071847;28;20016;-76
2022/05/05 10:04:00;;;;;;;2.45;1.00;;;18.60;99.90;;;;;;5072414;28;20565;-77
2022/05/05 10:06:44;;;;;;;3.80;1.77;;;18.60;99.90;;;;;;5071599;28;20445;-78
2022/05/05 10:09:14;;;;;;;3.63;0.95;;;18.60;99.90;;;;;;5071918;28;20398;-78
2022/05/05 10:11:42;;;;;;;1.95;1.30;;;18.60;99.90;;;;;;5072444;28;20479;-77
2022/05/05 10:14:13;;;;;;;4.43;0.90;;;18.50;99.90;;;;;;5071527;28;20051;-76
2022/05/05 10:16:43;;;;;;;2.10;1.10;;;18.40;99.90;;;;;;5072334;28;20021;-77
2022/05/05 10:19:11;;;;;;;2.00;1.27;;;18.40;99.90;;;;;;5092465;28;20099;-76
2022/05/05 10:21:44;;;;;;;6.05;1.38;;;18.30;99.90;;;;;;5091872;28;20027;-76
2022/05/05 10:24:31;;;;;;;2.92;1.27;;;18.30;99.90;;;;;;5091672;28;20032;-75
2022/05/05 10:27:00;;;;;;;5.32;1.08;;;18.30;99.90;;;;;;5091830;28;20056;-75
2022/05/05 10:29:41;;;;;;;3.35;1.33;;;18.30;99.90;;;;;;5091700;28;20658;-75
2022/05/05 10:32:21;;;;;;;3.42;1.67;;;18.30;99.90;;;;;;5092059;28;20027;-76
2022/05/05 10:35:21;;;;;;;1.65;0.95;;;18.30;99.90;;;;;;5092209;28;20023;-76
2022/05/05 10:37:49;;;;;;;3.47;1.20;;;18.30;99.90;;;;;;5092335;28;20020;-75
2022/05/05 10:40:17;;;;;;;6.00;1.42;;;18.30;99.90;;;;;;5091932;28;20016;-75
2022/05/05 10:42:45;;;;;;;4.68;1.65;;;18.30;99.90;;;;;;5092107;28;20074;-75
2022/05/05 10:45:19;;;;;;;4.60;1.88;;;18.30;99.90;;;;;;5091739;28;20032;-75
2022/05/05 10:47:58;;;;;;;2.60;1.38;;;18.30;99.90;;;;;;5091814;28;20093;-75
2022/05/05 10:50:52;;;;;;;3.47;1.02;;;18.30;99.90;;;;;;5091557;28;20040;-77
2022/05/05 10:53:31;;;;;;;4.38;1.50;;;18.30;99.90;;;;;;5091730;28;20056;-76
2022/05/05 10:56:01;;;;;;;3.30;1.00;;;18.40;99.90;;;;;;5090982;28;20047;-75
2022/05/05 10:59:16;;;;;;;4.55;1.25;;;18.40;99.90;;;;;;5091310;28;20382;-75
2022/05/05 11:01:47;;;;;;;1.35;1.17;;;18.40;99.90;;;;;;5058932;28;20072;-76
2022/05/05 11:04:26;;;;;;;3.38;1.08;;;18.40;99.90;;;;;;5070675;28;20032;-74
2022/05/05 11:07:20;;;;;;;2.78;1.30;;;18.30;99.90;;;;;;5071052;28;20032;-74
2022/05/05 11:09:47;;;;;;;3.80;1.83;;;18.20;99.90;;;;;;5070901;28;20103;-75
2022/05/05 11:12:22;;;;;;;4.90;1.80;;;18.10;99.90;;;;;;5070700;28;20029;-75
2022/05/05 11:23:48;;;;;;;3.28;1.30;;;17.60;99.90;;;;;;5071507;28;20318;-76
2022/05/05 11:26:19;;;;;;;3.28;0.93;;;17.60;99.90;;;;;;5070333;28;20109;-75
2022/05/05 11:28:50;;;;;;;2.47;1.20;;;17.50;99.90;;;;;;5070363;28;20086;-76
2022/05/05 11:31:19;;;;;;;3.45;1.08;;;17.50;99.90;;;;;;5069622;28;20063;-75
2022/05/05 11:34:05;;;;;;;2.63;1.73;;;17.40;99.90;;;;;;5069457;28;20028;-75
2022/05/05 11:36:35;;;;;;;1.40;0.93;;;17.40;99.90;;;;;;5069145;28;20036;-75
2022/05/05 11:39:04;;;;;;;3.40;1.50;;;17.40;99.90;;;;;;5073880;28;20070;-76
2022/05/05 11:41:31;;;;;;;2.63;0.90;;;17.40;99.90;;;;;;5084271;28;20078;-78
2022/05/05 11:46:44;;;;;;;3.97;1.63;;;17.50;99.90;;;;;;5086767;28;20035;-77
2022/05/05 11:49:12;;;;;;;3.85;1.65;;;17.60;99.90;;;;;;5082711;28;20056;-77
2022/05/05 11:51:39;;;;;;;3.45;1.40;;;17.60;99.90;;;;;;5079298;28;20131;-76
2022/05/05 11:54:08;;;;;;;10.25;1.50;;;17.60;99.90;;;;;;5086194;28;20024;-77
2022/05/05 11:56:37;;;;;;;2.78;1.15;;;17.60;99.90;;;;;;5088179;28;20043;-76
2022/05/05 12:02:13;;;;;;;1.55;0.80;;;17.70;99.90;;;;;;5071189;28;20059;-77
2022/05/05 12:04:49;;;;;;;3.95;1.40;;;17.70;99.90;;;;;;5051272;28;20159;-77
2022/05/05 12:07:19;;;;;;;;;;;17.80;99.90;;;;;;5074846;28;20024;-77
2022/05/05 12:09:51;;;;;;;5.05;1.27;;;17.80;99.90;;;;;;5084865;28;19912;-76
2022/05/05 12:12:24;;;;;;;2.58;1.10;;;17.70;99.90;;;;;;5077930;28;20028;-77
2022/05/05 12:15:03;;;;;;;1.40;0.90;;;17.70;99.90;;;;;;5068329;28;20474;-77
2022/05/05 12:17:42;;;;;;;2.47;0.90;;;17.60;99.90;;;;;;5074721;28;20564;-76
2022/05/05 12:20:12;;;;;;;2.13;1.00;;;17.60;99.90;;;;;;5083156;28;20062;-77
2022/05/05 12:22:41;;;;;;;3.40;1.80;;;17.60;99.90;;;;;;5077074;28;20116;-77
2022/05/05 12:25:14;;;;;;;3.15;1.27;;;17.60;99.90;;;;;;5085914;28;20093;-76
2022/05/05 12:28:06;;;;;;;4.75;1.33;;;17.50;99.90;;;;;;5088709;28;20103;-77
2022/05/05 12:30:40;;;;;;;6.85;1.60;;;17.50;99.90;;;;;;5092084;28;20085;-76
2022/05/05 12:33:17;;;;;;;3.45;1.35;;;17.50;99.90;;;;;;5090666;28;20482;-78
2022/05/05 12:35:46;;;;;;;4.70;1.50;;;17.50;99.90;;;;;;5084978;28;20032;-76
2022/05/05 12:38:16;;;;;;;5.43;1.10;;;17.50;99.90;;;;;;5091725;28;20024;-76
2022/05/05 12:40:46;;;;;;;1.70;0.73;;;17.50;99.90;;;;;;5091937;28;20027;-75
2022/05/05 12:43:20;;;;;;;1.80;0.88;;;17.40;99.90;;;;;;5093766;28;20111;-75
2022/05/05 12:45:49;;;;;;;1.60;0.70;;;17.40;99.90;;;;;;5086894;28;20116;-76
2022/05/05 12:48:19;;;;;;;5.90;1.30;;;17.30;99.90;;;;;;5074393;28;20123;-76
2022/05/05 12:50:53;;;;;;;3.13;1.05;;;17.20;99.90;;;;;;5074919;28;20024;-77
2022/05/05 13:01:48;;;;;;;3.55;0.90;;;17.30;99.90;;;;;;5094943;28;20046;-78
2022/05/05 13:04:19;;;;;;;1.25;1.13;;;17.30;99.90;;;;;;5093440;28;20064;-76
2022/05/05 13:06:50;;;;;;;3.45;0.70;;;17.30;99.90;;;;;;5091734;28;20040;-77
2022/05/05 13:09:18;;;;;;;2.15;0.90;;;17.40;99.90;;;;;;5092217;28;20024;-76
2022/05/05 13:11:51;;;;;;;1.83;0.70;;;17.40;99.90;;;;;;5094466;28;20020;-78
2022/05/05 13:14:20;;;;;;;1.63;0.82;;;17.40;99.90;;;;;;5093135;28;20020;-77
2022/05/05 13:16:48;;;;;;;1.48;0.70;;;17.50;99.90;;;;;;5088016;28;20043;-76
2022/05/05 13:19:16;;;;;;;1.65;0.70;;;17.50;99.90;;;;;;5080516;28;20030;-76
2022/05/05 13:21:44;;;;;;;1.42;0.52;;;17.50;99.90;;;;;;5091826;28;20032;-77
2022/05/05 13:24:12;;;;;;;4.45;1.63;;;17.50;99.90;;;;;;5090329;28;20520;-77
2022/05/05 13:26:42;;;;;;;2.55;0.68;;;17.50;99.90;;;;;;5087689;28;20066;-76
2022/05/05 13:29:09;;;;;;;3.38;0.70;;;17.50;99.90;;;;;;5087981;28;20028;-77
2022/05/05 13:31:37;;;;;;;1.02;0.70;;;17.50;99.90;;;;;;5083060;28;20044;-76
2022/05/05 13:34:05;;;;;;;1.25;0.50;;;17.40;99.90;;;;;;5079638;28;20024;-76
2022/05/05 13:36:32;;;;;;;0.90;0.70;;;17.30;99.90;;;;;;5089476;28;20439;-76
2022/05/05 13:39:00;;;;;;;1.20;0.45;;;17.20;99.90;;;;;;5090928;28;20020;-77
2022/05/05 13:41:27;;;;;;;0.88;0.30;;;17.10;99.90;;;;;;5090364;28;20085;-75
2022/05/05 13:43:54;;;;;;;2.92;0.50;;;17.00;99.90;;;;;;5089999;28;20044;-77
2022/05/05 13:46:22;;;;;;;2.35;0.50;;;16.90;99.90;;;;;;5089721;28;20028;-77
2022/05/05 13:48:49;;;;;;;1.17;0.35;;;16.80;99.90;;;;;;5090101;28;20575;-76
2022/05/05 13:51:18;;;;;;;1.08;0.70;;;16.70;99.90;;;;;;5087569;28;20084;-76
2022/05/05 13:53:45;;;;;;;2.10;0.77;;;16.70;99.90;;;;;;5088854;28;20072;-77